Time;durP1;ratioP1;P1;durP2;ratioP2;P2;SDS_P1;SDS_P2;PMS_P1;PMS_P2;Temp;Humidity;BMP_temperature;BMP_pressure;BME280_temperature;BME280_humidity;BME280_pressure;Samples;Min_cycle;Max_cycle;Signal;HPM_P1;HPM_P2
2021/01/02 00:02:14;;;;;;;2.53;1.77;;;;;;;-2.25;100.00;99948.69;4974735;28;20042;-79
2021/01/02 00:05:26;;;;;;;3.95;2.17;;;;;;;-2.30;100.00;99957.28;4974802;28;20058;-78
2021/01/02 00:08:30;;;;;;;1.52;1.30;;;;;;;-2.33;100.00;99955.31;4975591;28;20058;-80
2021/01/02 00:11:55;;;;;;;3.47;2.05;;;;;;;-2.38;100.00;99947.50;4974692;28;20576;-79
2021/01/02 00:15:02;;;;;;;7.45;1.92;;;;;;;-2.38;100.00;99950.22;4974576;28;20066;-80
2021/01/02 00:18:17;;;;;;;0.80;0.70;;;;;;;-2.41;100.00;99959.19;4985905;28;20057;-80
2021/01/02 00:21:26;;;;;;;3.08;2.80;;;;;;;-2.42;100.00;99946.72;4995975;28;20057;-80
2021/01/02 00:24:49;;;;;;;3.22;2.20;;;;;;;-2.44;100.00;99946.31;4994831;28;20053;-80
2021/01/02 00:28:14;;;;;;;1.52;1.42;;;;;;;-2.44;100.00;99943.59;4993597;28;20065;-80
2021/01/02 00:31:42;;;;;;;1.85;1.75;;;;;;;-2.42;100.00;99947.50;4992872;28;20065;-80
2021/01/02 00:34:52;;;;;;;4.15;1.77;;;;;;;-2.37;100.00;99949.88;4993978;28;20106;-81
2021/01/02 00:38:06;;;;;;;5.25;1.98;;;;;;;-2.33;100.00;99952.59;4993632;28;20053;-80
2021/01/02 00:41:11;;;;;;;3.45;2.28;;;;;;;-2.29;100.00;99956.09;4993504;28;20077;-79
2021/01/02 00:44:15;;;;;;;2.15;1.63;;;;;;;-2.30;100.00;99955.31;4992753;28;20061;-80
2021/01/02 00:47:20;;;;;;;4.75;2.00;;;;;;;-2.33;100.00;99949.84;4992663;28;20533;-80
2021/01/02 00:50:25;;;;;;;1.70;1.60;;;;;;;-2.38;100.00;99958.41;4993630;28;20061;-80
2021/01/02 00:53:40;;;;;;;6.80;2.20;;;;;;;-2.44;100.00;99954.50;4993084;28;20068;-79
2021/01/02 00:57:03;;;;;;;3.50;2.20;;;;;;;-2.51;100.00;99947.09;4992879;28;20054;-80
2021/01/02 01:00:07;;;;;;;2.17;1.75;;;;;;;-2.54;100.00;99958.00;4993432;28;20057;-80
2021/01/02 01:03:48;;;;;;;5.30;1.63;;;;;;;-2.57;100.00;99964.19;4992928;28;20053;-80
2021/01/02 01:06:55;;;;;;;1.65;1.60;;;;;;;-2.61;100.00;99957.97;4993275;28;20517;-80
2021/01/02 01:10:04;;;;;;;3.33;1.67;;;;;;;-2.61;100.00;99958.75;4993393;28;20061;-80
2021/01/02 01:13:10;;;;;;;4.35;2.35;;;;;;;-2.53;100.00;99956.81;4993422;28;20683;-81
2021/01/02 01:16:13;;;;;;;2.97;2.70;;;;;;;-2.47;100.00;99960.75;4992496;28;20053;-81
2021/01/02 01:19:20;;;;;;;2.97;1.23;;;;;;;-2.50;100.00;99966.97;4993211;28;20509;-81
2021/01/02 01:22:27;;;;;;;4.22;1.65;;;;;;;-2.55;100.00;99961.88;4994030;28;20057;-80
2021/01/02 01:25:45;;;;;;;4.35;3.00;;;;;;;-2.58;100.00;99968.09;5011574;28;20529;-81
2021/01/02 01:28:55;;;;;;;5.63;2.03;;;;;;;-2.64;100.00;99972.38;5008022;28;20509;-80
2021/01/02 01:31:59;;;;;;;2.78;2.53;;;;;;;-2.68;100.00;99968.84;4993152;28;20409;-81
2021/01/02 01:35:03;;;;;;;0.88;0.82;;;;;;;-2.72;100.00;99970.75;4993345;28;20053;-80
2021/01/02 01:38:14;;;;;;;5.22;2.03;;;;;;;-2.76;100.00;99969.97;4993174;28;20057;-81
2021/01/02 01:41:18;;;;;;;1.02;1.02;;;;;;;-2.79;100.00;99965.28;4992861;28;20510;-80
2021/01/02 01:44:36;;;;;;;5.10;2.17;;;;;;;-2.81;100.00;99964.88;4992904;28;20054;-81
2021/01/02 01:47:42;;;;;;;2.03;1.90;;;;;;;-2.80;100.00;99964.53;4992541;28;20058;-81
2021/01/02 01:51:00;;;;;;;4.75;1.27;;;;;;;-2.83;100.00;99964.50;4992584;28;20061;-81
2021/01/02 01:54:20;;;;;;;2.20;1.58;;;;;;;-2.85;100.00;99961.38;4992236;28;20511;-81
2021/01/02 01:57:25;;;;;;;4.50;1.80;;;;;;;-2.87;100.00;99969.16;4993049;28;20062;-80
2021/01/02 02:00:43;;;;;;;1.45;1.42;;;;;;;-2.88;100.00;99965.63;4992608;28;20061;-80
2021/01/02 02:04:17;;;;;;;2.13;1.98;;;;;;;-2.92;100.00;99964.09;4992639;28;20065;-81
2021/01/02 02:07:39;;;;;;;1.42;1.27;;;;;;;-2.92;100.00;99973.00;5003508;28;20057;-81
2021/01/02 02:11:01;;;;;;;1.98;1.88;;;;;;;-2.92;100.00;99966.81;4992222;28;20057;-80
2021/01/02 02:14:15;;;;;;;;;;;;;;;-2.97;100.00;99965.22;4992801;28;20066;-80
2021/01/02 02:17:24;;;;;;;1.48;1.35;;;;;;;-3.00;100.00;99965.19;5003334;28;20373;-81
2021/01/02 02:20:29;;;;;;;1.13;1.13;;;;;;;-3.03;100.00;99965.97;4991899;28;20058;-82
2021/01/02 02:23:35;;;;;;;3.08;0.95;;;;;;;-3.10;100.00;99967.47;4992719;28;20057;-81
2021/01/02 02:26:41;;;;;;;3.55;1.67;;;;;;;-3.13;100.00;99957.34;4993052;28;20057;-81
2021/01/02 02:30:11;;;;;;;2.65;2.40;;;;;;;-3.18;100.00;99965.88;4996407;28;20049;-82
2021/01/02 02:33:17;;;;;;;1.27;1.17;;;;;;;-3.20;100.00;99968.22;4996222;28;20118;-82
2021/01/02 02:36:20;;;;;;;7.13;1.65;;;;;;;-3.20;100.00;99968.22;4995346;28;20438;-83
2021/01/02 02:39:24;;;;;;;3.20;2.10;;;;;;;-3.20;100.00;99961.97;4996186;28;20057;-81
2021/01/02 02:42:30;;;;;;;2.80;2.22;;;;;;;-3.19;100.00;99967.06;4995891;28;20540;-81
2021/01/02 02:45:35;;;;;;;0.32;0.32;;;;;;;-3.19;100.00;99969.00;4996014;28;20081;-81
2021/01/02 02:48:44;;;;;;;8.18;2.17;;;;;;;-3.23;100.00;99957.31;4995254;28;20509;-82
2021/01/02 02:51:55;;;;;;;1.65;1.60;;;;;;;-3.26;100.00;99964.28;4996234;28;20563;-82
2021/01/02 02:54:59;;;;;;;2.22;2.05;;;;;;;-3.25;100.00;99976.72;4995728;28;20049;-82
2021/01/02 02:58:03;;;;;;;2.97;2.78;;;;;;;-3.26;100.00;99972.47;4994782;28;20061;-82
2021/01/02 03:01:07;;;;;;;3.10;2.50;;;;;;;-3.29;100.00;99970.47;5006100;28;20050;-82
2021/01/02 03:04:10;;;;;;;2.95;1.38;;;;;;;-3.31;100.00;99961.91;4995656;28;20057;-82
2021/01/02 03:07:14;;;;;;;0.80;0.80;;;;;;;-3.33;100.00;99975.13;4995818;28;20069;-77
2021/01/02 03:10:20;;;;;;;1.90;1.25;;;;;;;-3.36;100.00;99978.63;4995903;28;20061;-81
2021/01/02 03:13:24;;;;;;;5.95;2.55;;;;;;;-3.04;100.00;99978.81;4995668;28;20517;-82
2021/01/02 03:16:27;;;;;;;2.60;1.52;;;;;;;-3.18;100.00;99976.78;4995164;28;20118;-82
2021/01/02 03:19:31;;;;;;;2.22;2.08;;;;;;;-3.22;100.00;99969.75;4975091;28;20054;-80
2021/01/02 03:22:38;;;;;;;3.33;1.63;;;;;;;-3.28;100.00;99963.88;4975887;28;20506;-82
2021/01/02 03:25:41;;;;;;;2.15;1.33;;;;;;;-3.34;100.00;99967.34;4975632;28;20050;-82
2021/01/02 03:28:52;;;;;;;2.75;1.52;;;;;;;-3.45;100.00;99961.84;4974989;28;20058;-82
2021/01/02 03:31:55;;;;;;;4.00;2.22;;;;;;;-3.52;100.00;99953.63;4974819;28;20068;-82
2021/01/02 03:34:59;;;;;;;1.85;1.42;;;;;;;-3.54;100.00;99952.44;4974721;28;20407;-82
2021/01/02 03:38:02;;;;;;;3.97;1.75;;;;;;;-3.60;100.00;99956.66;4975437;28;20050;-83
2021/01/02 03:41:05;;;;;;;2.10;1.92;;;;;;;-3.63;100.00;99958.19;4976062;28;20073;-82
2021/01/02 03:44:09;;;;;;;2.53;2.33;;;;;;;-3.62;100.00;99962.50;4963930;28;20057;-82
2021/01/02 03:47:12;;;;;;;3.38;1.77;;;;;;;-3.63;100.00;99958.19;4974473;28;20057;-84
2021/01/02 03:50:15;;;;;;;1.58;1.48;;;;;;;-3.67;100.00;99960.13;4963327;28;20500;-83
2021/01/02 03:53:19;;;;;;;1.30;1.20;;;;;;;-3.67;100.00;99960.13;4974657;28;20057;-83
2021/01/02 03:56:22;;;;;;;5.68;2.70;;;;;;;-3.65;100.00;99963.25;4975344;28;20053;-82
2021/01/02 03:59:26;;;;;;;1.90;1.60;;;;;;;-3.63;100.00;99963.66;4974352;28;20073;-83
2021/01/02 04:02:29;;;;;;;5.65;2.28;;;;;;;-3.67;100.00;99960.13;4975433;28;20053;-83
2021/01/02 04:05:34;;;;;;;2.70;1.15;;;;;;;-3.71;100.00;99951.16;4975206;28;20054;-83
2021/01/02 04:08:38;;;;;;;4.85;2.90;;;;;;;-3.77;100.00;99966.28;4963387;28;20062;-83
2021/01/02 04:11:42;;;;;;;1.85;1.75;;;;;;;-3.85;100.00;99959.19;4975391;28;20045;-82
2021/01/02 04:14:45;;;;;;;2.67;0.90;;;;;;;-3.90;100.00;99967.72;4962877;28;20415;-83
2021/01/02 04:17:49;;;;;;;10.55;2.35;;;;;;;-3.92;100.00;99975.47;4981219;28;20057;-84
2021/01/02 04:20:52;;;;;;;1.20;1.10;;;;;;;-3.94;100.00;99961.44;4993757;28;20057;-83
2021/01/02 04:23:56;;;;;;;5.20;2.88;;;;;;;-3.97;100.00;99967.66;4994085;28;20652;-83
2021/01/02 04:27:00;;;;;;;6.22;1.35;;;;;;;-3.97;100.00;99976.59;4994391;28;20407;-83
2021/01/02 04:30:04;;;;;;;2.85;2.10;;;;;;;-3.99;100.00;99970.75;4994348;28;20054;-83
2021/01/02 04:33:08;;;;;;;1.67;1.55;;;;;;;-3.99;100.00;99964.53;4993766;28;20073;-84
2021/01/02 04:36:13;;;;;;;3.88;1.98;;;;;;;-4.00;100.00;99962.94;4994271;28;20045;-83
2021/01/02 04:39:17;;;;;;;2.83;2.38;;;;;;;-3.99;100.00;99964.53;5004919;28;20057;-83
2021/01/02 04:42:24;;;;;;;1.52;1.45;;;;;;;-4.00;100.00;99969.19;4993803;28;20383;-85
2021/01/02 04:45:27;;;;;;;1.85;1.08;;;;;;;-4.02;100.00;99976.13;4993506;28;20053;-83
2021/01/02 04:48:31;;;;;;;1.67;1.67;;;;;;;-4.05;100.00;99971.47;4994468;28;20057;-83
2021/01/02 04:51:34;;;;;;;0.50;0.50;;;;;;;-4.09;100.00;99967.91;5003853;28;20061;-83
2021/01/02 04:54:43;;;;;;;4.00;2.50;;;;;;;-4.13;100.00;99972.53;4993351;28;20520;-84
2021/01/02 04:57:48;;;;;;;1.73;1.33;;;;;;;-4.14;100.00;99971.00;4994431;28;20049;-84
2021/01/02 05:00:54;;;;;;;2.03;1.33;;;;;;;-4.16;100.00;99971.34;4993568;28;20726;-83
2021/01/02 05:03:57;;;;;;;0.80;0.55;;;;;;;-4.20;100.00;99975.97;4993508;28;20050;-84
2021/01/02 05:07:01;;;;;;;1.10;1.10;;;;;;;-4.23;100.00;99981.38;4993898;28;20053;-84
2021/01/02 05:10:06;;;;;;;2.67;2.47;;;;;;;-4.26;100.00;99982.13;4993610;28;20422;-83
2021/01/02 05:13:12;;;;;;;2.85;2.63;;;;;;;-4.30;100.00;99981.31;4994009;28;20065;-84
2021/01/02 05:16:31;;;;;;;0.85;0.85;;;;;;;-4.31;100.00;99977.03;4993239;28;20061;-85
2021/01/02 05:19:34;;;;;;;1.90;1.80;;;;;;;-4.33;100.00;99976.63;4962501;28;20057;-84
2021/01/02 05:22:40;;;;;;;0.90;0.90;;;;;;;-4.32;100.00;99972.75;4962546;28;20066;-83
2021/01/02 05:25:43;;;;;;;5.55;2.10;;;;;;;-4.34;100.00;99972.34;4973450;28;20073;-84
2021/01/02 05:28:46;;;;;;;4.72;2.08;;;;;;;-4.35;100.00;99974.25;4974829;28;20054;-83
2021/01/02 05:31:58;;;;;;;2.03;1.95;;;;;;;-4.36;100.00;99972.72;4974581;28;20061;-83
2021/01/02 05:35:21;;;;;;;1.58;1.35;;;;;;;-4.36;100.00;99966.50;4975020;28;20053;-83
2021/01/02 05:38:26;;;;;;;2.75;2.20;;;;;;;-4.36;100.00;99982.78;4977289;28;20066;-83
2021/01/02 05:41:46;;;;;;;2.08;1.88;;;;;;;-4.36;100.00;99971.94;4980558;28;20054;-83
2021/01/02 05:44:49;;;;;;;1.23;1.13;;;;;;;-4.41;100.00;99964.88;4978378;28;20049;-85
2021/01/02 05:47:56;;;;;;;3.17;1.90;;;;;;;-4.41;100.00;99964.09;4974585;28;20049;-84
2021/01/02 05:51:01;;;;;;;3.45;2.40;;;;;;;-4.42;100.00;99965.28;4976006;28;20046;-83
2021/01/02 05:54:09;;;;;;;8.23;4.03;;;;;;;-4.45;100.00;99963.28;4973333;28;20058;-84
2021/01/02 05:57:23;;;;;;;2.67;1.67;;;;;;;-4.45;100.00;99963.28;4981700;28;20054;-82
2021/01/02 06:00:27;;;;;;;3.65;1.13;;;;;;;-4.51;100.00;99956.63;4973318;28;20054;-83
2021/01/02 06:03:31;;;;;;;3.55;1.77;;;;;;;-4.55;100.00;99961.25;4977342;28;20058;-84
2021/01/02 06:06:34;;;;;;;2.17;2.08;;;;;;;-4.59;100.00;99953.03;4977472;28;20049;-85
2021/01/02 06:09:38;;;;;;;1.00;0.77;;;;;;;-4.63;100.00;99958.44;4976683;28;20054;-84
2021/01/02 06:12:43;;;;;;;5.82;2.25;;;;;;;-4.64;100.00;99954.19;4964959;28;20517;-85
2021/01/02 06:15:46;;;;;;;10.10;2.70;;;;;;;-4.67;100.00;99952.19;4976060;28;20069;-83
2021/01/02 06:18:50;;;;;;;2.60;2.40;;;;;;;-4.67;100.00;99957.63;4992427;28;20502;-83
2021/01/02 06:21:53;;;;;;;1.55;1.45;;;;;;;-4.65;100.00;99955.31;4996605;28;20052;-83
2021/01/02 06:24:57;;;;;;;1.00;1.00;;;;;;;-4.62;100.00;99953.78;5013437;28;20044;-84
2021/01/02 06:28:01;;;;;;;4.78;2.53;;;;;;;-4.67;100.00;99952.19;5015907;28;20076;-85
2021/01/02 06:31:12;;;;;;;2.28;1.98;;;;;;;-4.69;100.00;99949.06;5003947;28;20848;-83
2021/01/02 06:34:16;;;;;;;0.88;0.88;;;;;;;-4.75;100.00;99950.56;5016059;28;20053;-84
2021/01/02 06:37:20;;;;;;;0.90;0.90;;;;;;;-4.78;100.00;99943.13;5024424;28;20393;-84
2021/01/02 06:40:36;;;;;;;1.10;0.70;;;;;;;-4.78;100.00;99945.84;5016196;28;20049;-84
2021/01/02 06:43:40;;;;;;;1.27;1.27;;;;;;;-4.81;100.00;99946.59;5003936;28;20524;-85
2021/01/02 06:46:43;;;;;;;2.67;1.73;;;;;;;-4.83;100.00;99938.03;5016224;28;20398;-84
2021/01/02 06:49:51;;;;;;;0.90;0.90;;;;;;;-4.86;100.00;99946.94;5003480;28;20065;-85
2021/01/02 06:52:54;;;;;;;2.20;1.38;;;;;;;-4.89;100.00;99950.38;5015450;28;20406;-82
2021/01/02 06:56:05;;;;;;;3.25;2.67;;;;;;;-4.91;100.00;99951.88;5003648;28;20056;-83
2021/01/02 06:59:21;;;;;;;1.15;0.98;;;;;;;-4.93;100.00;99949.56;5015827;28;20517;-86
2021/01/02 07:02:31;;;;;;;1.80;1.70;;;;;;;-4.99;100.00;99951.03;5004255;28;20168;-86
2021/01/02 07:05:48;;;;;;;1.17;1.17;;;;;;;-4.99;100.00;99963.81;5003922;28;20505;-86
2021/01/02 07:08:54;;;;;;;1.17;1.17;;;;;;;-5.04;100.00;99954.06;5014270;28;20061;-85
2021/01/02 07:12:13;;;;;;;1.48;1.25;;;;;;;-5.06;100.00;99956.38;5015675;28;20077;-86
2021/01/02 07:15:25;;;;;;;2.17;1.95;;;;;;;-5.10;100.00;99952.03;5022989;28;20045;-86
2021/01/02 07:18:28;;;;;;;5.20;1.75;;;;;;;-5.10;100.00;99955.53;4991002;28;20066;-86
2021/01/02 07:21:36;;;;;;;3.70;2.25;;;;;;;-5.10;100.00;99952.03;4983490;28;20053;-85
2021/01/02 07:25:01;;;;;;;1.58;1.48;;;;;;;-5.09;100.00;99953.63;4982332;28;20058;-85
2021/01/02 07:28:05;;;;;;;2.88;2.63;;;;;;;-5.10;100.00;99960.97;4993270;28;20057;-85
2021/01/02 07:31:08;;;;;;;1.58;1.52;;;;;;;-5.11;100.00;99959.41;4982771;28;20407;-86
2021/01/02 07:34:22;;;;;;;1.52;1.52;;;;;;;-5.11;100.00;99956.69;4981967;28;20076;-85
2021/01/02 07:37:29;;;;;;;4.05;2.63;;;;;;;-5.15;100.00;99955.09;4994686;28;20406;-84
2021/01/02 07:40:36;;;;;;;7.43;1.83;;;;;;;-5.19;100.00;99940.66;4993817;28;20053;-85
2021/01/02 07:43:40;;;;;;;2.30;1.70;;;;;;;-5.24;100.00;99944.50;4982516;28;20306;-85
2021/01/02 07:46:45;;;;;;;4.57;2.53;;;;;;;-5.27;100.00;99947.97;4993627;28;20053;-85
2021/01/02 07:49:48;;;;;;;3.15;1.80;;;;;;;-5.29;100.00;99952.19;4982391;28;20065;-86
2021/01/02 07:52:59;;;;;;;5.03;3.33;;;;;;;-5.31;100.00;99957.97;4984274;28;20083;-86
2021/01/02 07:56:03;;;;;;;2.58;2.25;;;;;;;-5.34;100.00;99950.56;4994187;28;20053;-85
2021/01/02 07:59:28;;;;;;;3.50;2.38;;;;;;;-5.28;100.00;99959.19;4994843;28;20073;-85
2021/01/02 08:02:32;;;;;;;2.97;2.78;;;;;;;-5.29;100.00;99952.19;4984816;28;20053;-87
2021/01/02 08:05:37;;;;;;;2.60;2.15;;;;;;;-5.31;100.00;99949.06;4995304;28;20053;-86
2021/01/02 08:08:41;;;;;;;2.25;1.55;;;;;;;-5.30;100.00;99953.31;4983776;28;20058;-86
2021/01/02 08:11:53;;;;;;;3.25;3.00;;;;;;;-5.28;100.00;99946.38;4994808;28;20049;-85
2021/01/02 08:14:57;;;;;;;11.35;3.85;;;;;;;-5.23;100.00;99945.28;5000196;28;20053;-85
2021/01/02 08:18:05;;;;;;;11.93;6.70;;;;;;;-5.17;100.00;99938.38;5000573;28;20053;-86
2021/01/02 08:21:09;;;;;;;7.88;4.75;;;;;;;-5.14;100.00;99943.06;5012312;28;20557;-85
2021/01/02 08:24:13;;;;;;;14.68;3.67;;;;;;;-5.05;100.00;99949.00;5002284;28;20049;-84
2021/01/02 08:27:16;;;;;;;5.20;3.17;;;;;;;-4.96;100.00;99957.66;5001551;28;20049;-80
2021/01/02 08:30:20;;;;;;;3.35;1.73;;;;;;;-4.85;100.00;99947.72;5012443;28;20066;-81
2021/01/02 08:33:24;;;;;;;4.72;2.70;;;;;;;-4.70;100.00;99952.91;5000994;28;20507;-85
2021/01/02 08:36:28;;;;;;;6.45;4.32;;;;;;;-4.51;100.00;99948.47;5009417;28;20053;-86
2021/01/02 08:39:33;;;;;;;11.25;4.78;;;;;;;-4.33;100.00;99949.44;4992923;28;20049;-84
2021/01/02 08:42:46;;;;;;;10.70;4.25;;;;;;;-4.23;100.00;99944.09;4993888;28;20061;-82
2021/01/02 08:45:52;;;;;;;5.60;3.97;;;;;;;-4.19;100.00;99942.19;4993185;28;20049;-83
2021/01/02 08:48:56;;;;;;;4.63;2.80;;;;;;;-4.12;100.00;99945.00;4972016;28;20049;-82
2021/01/02 08:52:20;;;;;;;4.47;2.55;;;;;;;-4.08;100.00;99945.00;4980881;28;20073;-85
2021/01/02 08:55:27;;;;;;;3.67;3.38;;;;;;;-4.00;100.00;99941.19;4981812;28;20387;-88
2021/01/02 08:58:35;;;;;;;6.10;3.47;;;;;;;-3.92;100.00;99942.84;5014789;28;20053;-90
2021/01/02 09:01:38;;;;;;;7.78;2.28;;;;;;;-3.81;100.00;99942.91;4998154;28;20402;-82
2021/01/02 09:04:41;;;;;;;6.97;2.63;;;;;;;-3.75;100.00;99944.91;5012903;28;20512;-79
2021/01/02 09:07:57;;;;;;;16.08;3.28;;;;;;;-3.67;100.00;99943.78;5013382;28;20137;-78
2021/01/02 09:11:01;;;;;;;4.53;3.17;;;;;;;-3.60;100.00;99943.06;5012234;28;20057;-78
2021/01/02 09:14:06;;;;;;;2.40;1.92;;;;;;;-3.55;100.00;99945.44;4994014;28;20065;-79
2021/01/02 09:17:10;;;;;;;19.40;5.35;;;;;;;-3.47;100.00;99947.81;4992771;28;20061;-78
2021/01/02 09:20:18;;;;;;;9.10;2.72;;;;;;;-3.38;100.00;99945.53;4993170;28;20065;-79
2021/01/02 09:23:36;;;;;;;5.70;2.95;;;;;;;-3.29;100.00;99954.16;4992548;28;20053;-78
2021/01/02 09:26:39;;;;;;;7.63;2.25;;;;;;;-3.22;100.00;99948.75;4992823;28;20058;-78
2021/01/02 09:29:42;;;;;;;12.90;5.25;;;;;;;-3.13;100.00;99960.09;4993167;28;20057;-78
2021/01/02 09:32:46;;;;;;;13.80;2.70;;;;;;;-3.01;100.00;99952.75;4997299;28;20069;-78
2021/01/02 09:35:49;;;;;;;3.38;2.70;;;;;;;-2.92;100.00;99948.50;5012608;28;20049;-79
2021/01/02 09:38:52;;;;;;;6.82;4.80;;;;;;;-2.83;100.00;99953.59;5012622;28;20068;-78
2021/01/02 09:41:56;;;;;;;19.73;7.13;;;;;;;-2.72;100.00;99957.13;5000271;28;20053;-79
2021/01/02 09:44:59;;;;;;;16.48;4.05;;;;;;;-2.60;100.00;99956.81;5012395;28;20057;-79
2021/01/02 09:48:03;;;;;;;5.35;3.42;;;;;;;-2.56;100.00;99963.06;5012667;28;20513;-79
2021/01/02 09:51:06;;;;;;;8.40;3.20;;;;;;;-2.51;100.00;99960.72;4992916;28;20058;-78
2021/01/02 09:54:09;;;;;;;13.25;4.55;;;;;;;-2.47;100.00;99964.22;4980856;28;20514;-79
2021/01/02 09:57:13;;;;;;;7.45;3.80;;;;;;;-2.45;100.00;99955.69;4993239;28;20089;-79
2021/01/02 10:00:18;;;;;;;13.00;4.88;;;;;;;-2.35;100.00;99968.56;4993111;28;20049;-78
2021/01/02 10:03:22;;;;;;;10.88;4.13;;;;;;;-2.31;100.00;99963.88;4993267;28;20053;-79
2021/01/02 10:06:25;;;;;;;9.07;3.50;;;;;;;-2.23;100.00;99972.88;4994474;28;20045;-79
2021/01/02 10:09:28;;;;;;;8.80;2.70;;;;;;;-2.22;100.00;99972.47;4995379;28;20561;-79
2021/01/02 10:12:32;;;;;;;3.90;2.97;;;;;;;-2.20;100.00;99972.09;5000271;28;20594;-80
2021/01/02 10:15:36;;;;;;;3.67;2.50;;;;;;;-2.13;100.00;99972.09;4992093;28;20068;-79
2021/01/02 10:18:40;;;;;;;2.95;2.20;;;;;;;-2.08;100.00;99977.94;4991987;28;20541;-79
2021/01/02 10:21:47;;;;;;;6.65;1.95;;;;;;;-2.00;100.00;99973.28;4992375;28;20430;-78
2021/01/02 10:24:52;;;;;;;9.73;2.60;;;;;;;-1.92;100.00;99974.84;4991706;28;20066;-79
2021/01/02 10:27:55;;;;;;;7.13;4.43;;;;;;;-1.85;100.00;99981.13;4992496;28;20049;-79
2021/01/02 10:30:59;;;;;;;10.43;3.30;;;;;;;-1.80;100.00;99967.06;4992469;28;20057;-79
2021/01/02 10:34:02;;;;;;;8.65;4.45;;;;;;;-1.76;100.00;99973.31;4992161;28;20057;-79
2021/01/02 10:37:06;;;;;;;14.20;5.28;;;;;;;-1.71;100.00;99974.88;4992174;28;20509;-79
2021/01/02 10:40:12;;;;;;;10.15;4.15;;;;;;;-1.66;100.00;99972.53;4992567;28;20049;-79
2021/01/02 10:43:15;;;;;;;15.40;6.07;;;;;;;-1.61;100.00;99963.97;4992273;28;20049;-78
2021/01/02 10:46:18;;;;;;;8.65;4.95;;;;;;;-1.59;100.00;99949.91;4992375;28;20058;-78
2021/01/02 10:49:23;;;;;;;6.05;4.53;;;;;;;-1.60;100.00;99946.38;4996491;28;20045;-79
2021/01/02 10:52:27;;;;;;;12.05;5.15;;;;;;;-1.56;100.00;99943.69;5014483;28;20528;-79
2021/01/02 10:55:30;;;;;;;10.82;4.65;;;;;;;-1.47;100.00;99940.53;5014772;28;20073;-78
2021/01/02 10:58:34;;;;;;;11.05;4.88;;;;;;;-1.39;100.00;99936.63;5014754;28;20057;-79
2021/01/02 11:01:46;;;;;;;6.03;3.92;;;;;;;-1.31;100.00;99943.63;5014642;28;20053;-79
2021/01/02 11:04:51;;;;;;;5.85;3.00;;;;;;;-1.26;100.00;99937.75;5000913;28;20054;-79
2021/01/02 11:07:54;;;;;;;6.07;4.03;;;;;;;-1.20;100.00;99939.69;4995114;28;20053;-79
2021/01/02 11:10:58;;;;;;;19.25;6.32;;;;;;;-1.13;100.00;99938.91;4977859;28;20057;-79
2021/01/02 11:14:02;;;;;;;23.67;7.18;;;;;;;-1.10;100.00;99933.41;4994996;28;20069;-79
2021/01/02 11:17:06;;;;;;;20.38;8.00;;;;;;;-1.06;100.00;99928.72;5003585;28;20053;-79
2021/01/02 11:20:11;;;;;;;11.57;5.13;;;;;;;-0.97;100.00;99937.28;5002026;28;20057;-79
2021/01/02 11:23:18;;;;;;;10.60;3.60;;;;;;;-0.93;100.00;99931.78;5014393;28;20057;-79
2021/01/02 11:26:22;;;;;;;19.27;4.95;;;;;;;-0.89;100.00;99921.66;5014587;28;20049;-79
2021/01/02 11:29:30;;;;;;;13.80;4.20;;;;;;;-0.85;100.00;99914.22;4997223;28;20054;-79
2021/01/02 11:32:33;;;;;;;7.43;3.92;;;;;;;-0.76;100.00;99909.09;4993724;28;20057;-79
2021/01/02 11:35:37;;;;;;;10.52;3.97;;;;;;;-0.71;100.00;99905.16;4994489;28;20108;-78
2021/01/02 11:38:40;;;;;;;8.02;4.35;;;;;;;-0.65;100.00;99904.31;4994889;28;20053;-78
2021/01/02 11:41:45;;;;;;;6.63;4.32;;;;;;;-0.59;100.00;99910.97;4994776;28;20049;-78
2021/01/02 11:44:48;;;;;;;5.72;4.25;;;;;;;-0.53;100.00;99916.78;4994897;28;20057;-78
2021/01/02 11:47:52;;;;;;;21.65;6.32;;;;;;;-0.48;100.00;99908.94;4994586;28;20057;-77
2021/01/02 11:50:56;;;;;;;15.43;4.82;;;;;;;-0.42;100.00;99907.34;4974651;28;20514;-78
2021/01/02 11:54:00;;;;;;;9.52;3.90;;;;;;;-0.37;100.00;99906.91;4975202;28;20078;-78
2021/01/02 11:57:05;;;;;;;23.75;4.70;;;;;;;-0.32;100.00;99901.00;4974934;28;20046;-78
2021/01/02 12:00:10;;;;;;;7.20;3.78;;;;;;;-0.27;100.00;99903.34;4974535;28;20045;-78
2021/01/02 12:03:13;;;;;;;12.60;2.92;;;;;;;-0.24;100.00;99897.03;4974444;28;20062;-78
2021/01/02 12:06:16;;;;;;;13.15;4.15;;;;;;;-0.20;100.00;99895.09;4974603;28;20521;-78
2021/01/02 12:09:22;;;;;;;4.63;2.75;;;;;;;-0.16;100.00;99903.25;4975160;28;20058;-78
2021/01/02 12:12:26;;;;;;;5.75;2.97;;;;;;;-0.11;100.00;99900.84;4975444;28;20058;-79
2021/01/02 12:15:29;;;;;;;5.70;3.03;;;;;;;-0.09;100.00;99895.75;4974435;28;20062;-78
2021/01/02 12:18:33;;;;;;;9.38;2.85;;;;;;;-0.06;100.00;99886.75;4974626;28;20066;-78
2021/01/02 12:21:36;;;;;;;13.45;3.38;;;;;;;-0.03;100.00;99896.13;4976354;28;20062;-79
2021/01/02 12:24:41;;;;;;;4.95;3.00;;;;;;;-0.01;100.00;99894.53;4975131;28;20057;-79
2021/01/02 12:27:45;;;;;;;17.60;4.15;;;;;;;0.00;100.00;99889.84;4973551;28;20057;-80
2021/01/02 12:30:48;;;;;;;17.45;6.20;;;;;;;0.02;100.00;99892.19;4974079;28;20054;-80
2021/01/02 12:33:52;;;;;;;17.98;5.88;;;;;;;0.02;100.00;99895.69;4973942;28;20057;-79
2021/01/02 12:36:58;;;;;;;5.90;2.35;;;;;;;-0.04;100.00;99884.38;4974213;28;20050;-80
2021/01/02 12:40:03;;;;;;;6.32;3.20;;;;;;;-0.04;100.00;99878.91;4974534;28;20103;-80
2021/01/02 12:43:07;;;;;;;8.85;3.40;;;;;;;-0.04;100.00;99884.38;4974339;28;20514;-81
2021/01/02 12:46:11;;;;;;;6.75;4.18;;;;;;;-0.03;100.00;99880.47;4974631;28;20115;-80
2021/01/02 12:49:18;;;;;;;9.80;4.13;;;;;;;-0.02;100.00;99882.03;4988774;28;20049;-82
2021/01/02 12:52:22;;;;;;;16.85;4.30;;;;;;;-0.02;100.00;99892.97;5013661;28;20060;-83
2021/01/02 12:55:25;;;;;;;13.63;4.22;;;;;;;-0.02;100.00;99882.03;5013854;28;20532;-85
2021/01/02 12:58:29;;;;;;;7.05;2.20;;;;;;;0.03;100.00;99888.25;5013970;28;20387;-84
2021/01/02 13:01:41;;;;;;;3.03;2.80;;;;;;;0.07;100.00;99884.28;5013862;28;20060;-84
2021/01/02 13:04:45;;;;;;;15.98;4.03;;;;;;;0.15;100.00;99879.53;5013363;28;20049;-85
2021/01/02 13:07:49;;;;;;;17.30;4.20;;;;;;;0.17;100.00;99879.91;5012763;28;20541;-83
2021/01/02 13:10:52;;;;;;;5.40;4.53;;;;;;;0.17;100.00;99877.19;5012562;28;20069;-83
2021/01/02 13:13:55;;;;;;;7.22;3.95;;;;;;;0.15;100.00;99879.53;5012847;28;20065;-82
2021/01/02 13:17:02;;;;;;;23.95;3.38;;;;;;;0.12;100.00;99883.88;5012964;28;20056;-84
2021/01/02 13:20:06;;;;;;;10.07;3.85;;;;;;;0.09;100.00;99881.16;5001138;28;20057;-82
2021/01/02 13:23:09;;;;;;;3.33;3.03;;;;;;;0.07;100.00;99891.72;5012302;28;20049;-82
2021/01/02 13:26:14;;;;;;;6.65;3.55;;;;;;;0.06;100.00;99888.22;5012836;28;20057;-82
2021/01/02 13:29:21;;;;;;;3.33;2.35;;;;;;;0.03;100.00;99893.72;5012141;28;20073;-79
2021/01/02 13:32:24;;;;;;;9.40;3.30;;;;;;;-0.02;100.00;99887.50;5012514;28;20053;-78
2021/01/02 13:35:28;;;;;;;5.50;2.30;;;;;;;-0.07;100.00;99887.94;4999786;28;20053;-77
2021/01/02 13:38:31;;;;;;;9.88;3.20;;;;;;;-0.11;100.00;99881.69;5000521;28;20161;-77
2021/01/02 13:41:36;;;;;;;3.92;1.98;;;;;;;-0.09;100.00;99893.00;5012241;28;20064;-78
2021/01/02 13:44:40;;;;;;;8.15;2.30;;;;;;;-0.14;100.00;99885.25;5012210;28;20053;-79
2021/01/02 13:47:44;;;;;;;5.15;1.90;;;;;;;-0.29;100.00;99878.34;5012553;28;20386;-78
2021/01/02 13:50:48;;;;;;;3.25;1.15;;;;;;;-0.37;100.00;99887.75;4992786;28;20057;-78
2021/01/02 13:53:51;;;;;;;3.33;2.03;;;;;;;-0.46;100.00;99875.72;4992394;28;20114;-76
2021/01/02 13:56:55;;;;;;;2.10;1.65;;;;;;;-0.52;100.00;99875.34;4992438;28;20053;-77
2021/01/02 13:59:58;;;;;;;1.35;1.25;;;;;;;-0.56;100.00;99882.78;4991628;28;20057;-78
2021/01/02 14:03:01;;;;;;;10.43;2.08;;;;;;;-0.59;100.00;99874.63;4992685;28;20430;-77
2021/01/02 14:06:10;;;;;;;8.02;2.40;;;;;;;-0.63;100.00;99882.84;4991536;28;20069;-76
2021/01/02 14:09:13;;;;;;;4.22;2.55;;;;;;;-0.64;100.00;99878.56;4992631;28;20134;-75
2021/01/02 14:12:17;;;;;;;11.90;2.28;;;;;;;-0.65;100.00;99884.44;5005966;28;20057;-76
2021/01/02 14:15:20;;;;;;;3.35;1.52;;;;;;;-0.58;100.00;99885.16;5011489;28;20135;-77
2021/01/02 14:18:24;;;;;;;8.07;3.30;;;;;;;-0.49;100.00;99882.75;5011558;28;20061;-77
2021/01/02 14:21:27;;;;;;;17.55;2.65;;;;;;;-0.41;100.00;99881.53;5012160;28;20051;-77
2021/01/02 14:24:31;;;;;;;9.50;2.17;;;;;;;-0.34;100.00;99888.91;5001147;28;20049;-76
2021/01/02 14:27:35;;;;;;;2.97;1.27;;;;;;;-0.31;100.00;99888.91;4996014;28;20057;-76